createdAt,value
2023-04-07T00:04:37.297Z,7.06
2023-04-07T00:09:38.588Z,7.07
2023-04-07T00:14:39.770Z,7.10
2023-04-07T00:19:41.063Z,7.10
2023-04-07T00:24:42.311Z,7.10
2023-04-07T00:29:46.871Z,7.10
2023-04-07T00:34:48.054Z,7.10
2023-04-07T00:39:51.269Z,7.11
2023-04-07T00:44:52.475Z,7.11
2023-04-07T00:49:53.670Z,7.13
2023-04-07T00:54:55.179Z,7.14
2023-04-07T00:59:56.458Z,7.18
2023-04-07T01:04:57.799Z,7.19
2023-04-07T01:10:00.649Z,7.18
2023-04-07T01:15:01.888Z,7.18
2023-04-07T01:20:08.275Z,7.17
2023-04-07T01:25:09.512Z,7.18
2023-04-07T01:30:10.786Z,7.16
2023-04-07T01:35:11.939Z,7.19
2023-04-07T01:40:13.160Z,7.18
2023-04-07T01:45:14.444Z,7.20
2023-04-07T01:50:16.760Z,7.22
2023-04-07T01:55:17.960Z,7.26
2023-04-07T02:00:19.129Z,7.28
2023-04-07T02:05:20.401Z,7.30
2023-04-07T02:10:21.597Z,7.32
2023-04-07T02:15:22.789Z,7.33
2023-04-07T02:20:24.005Z,7.33
2023-04-07T02:25:25.461Z,7.35
2023-04-07T02:30:26.670Z,7.36
2023-04-07T02:35:27.877Z,7.37
2023-04-07T02:40:29.069Z,7.39
2023-04-07T02:45:30.274Z,7.37
2023-04-07T02:50:31.663Z,7.39
2023-04-07T02:55:32.845Z,7.42
2023-04-07T03:00:33.991Z,7.45
2023-04-07T03:05:35.210Z,7.48
2023-04-07T03:10:36.472Z,7.50
2023-04-07T03:15:37.639Z,7.54
2023-04-07T03:20:39.079Z,7.57
2023-04-07T03:25:40.716Z,7.60
2023-04-07T03:30:41.968Z,7.64
2023-04-07T03:35:43.221Z,7.67
2023-04-07T03:40:44.386Z,7.69
2023-04-07T03:45:45.942Z,7.73
2023-04-07T03:50:47.272Z,7.75
2023-04-07T03:55:48.460Z,7.77
2023-04-07T04:00:49.620Z,7.78
2023-04-07T04:05:51.027Z,7.79
2023-04-07T04:10:52.253Z,7.80
2023-04-07T04:15:53.530Z,7.80
2023-04-07T04:20:54.772Z,7.79
2023-04-07T04:25:56.829Z,7.80
2023-04-07T04:30:58.050Z,7.79
2023-04-07T04:35:59.222Z,7.81
2023-04-07T04:41:00.491Z,7.82
2023-04-07T04:46:01.676Z,7.75
2023-04-07T04:51:02.827Z,7.70
2023-04-07T04:56:04.049Z,7.68
2023-04-07T05:01:05.672Z,7.64
2023-04-07T05:06:06.878Z,7.62
2023-04-07T05:11:08.080Z,7.60
2023-04-07T05:16:09.336Z,7.57
2023-04-07T05:21:10.987Z,7.58
2023-04-07T05:26:12.238Z,7.54
2023-04-07T05:31:13.488Z,7.55
2023-04-07T05:36:14.801Z,7.56
2023-04-07T05:41:16.083Z,7.55
2023-04-07T05:46:17.285Z,7.57
2023-04-07T05:51:18.584Z,7.57
2023-04-07T05:56:19.718Z,7.55
2023-04-07T06:01:21.131Z,7.52
2023-04-07T06:06:22.296Z,7.53
2023-04-07T06:11:23.470Z,7.54
2023-04-07T06:16:24.672Z,7.55
2023-04-07T06:21:27.583Z,7.54
2023-04-07T06:26:28.855Z,7.56
2023-04-07T06:31:30.239Z,7.47
2023-04-07T06:36:31.483Z,7.43
2023-04-07T06:41:32.991Z,7.50
2023-04-07T06:46:34.395Z,7.47
2023-04-07T06:51:35.635Z,7.51
2023-04-07T06:56:36.892Z,7.45
2023-04-07T07:01:38.217Z,7.45
2023-04-07T07:06:39.530Z,7.48
2023-04-07T07:11:41.139Z,7.49
2023-04-07T07:16:42.351Z,7.50
2023-04-07T07:21:43.549Z,7.52
2023-04-07T07:26:45.881Z,7.53
2023-04-07T07:31:47.071Z,7.53
2023-04-07T07:36:48.262Z,7.51
2023-04-07T07:41:50.574Z,7.55
2023-04-07T07:46:51.827Z,7.55
2023-04-07T07:51:53.204Z,7.60
2023-04-07T07:56:54.424Z,7.69
2023-04-07T08:01:55.829Z,7.77
2023-04-07T08:06:57.123Z,7.73
2023-04-07T08:11:58.346Z,7.72
2023-04-07T08:16:59.584Z,7.74
2023-04-07T08:22:00.790Z,7.75
2023-04-07T08:27:02.187Z,7.87
2023-04-07T08:32:03.443Z,7.79
2023-04-07T08:37:04.629Z,7.89
2023-04-07T08:42:05.813Z,7.93
2023-04-07T08:47:07.865Z,7.95
2023-04-07T08:52:09.607Z,7.92
2023-04-07T08:57:11.354Z,8.03
2023-04-07T09:02:12.551Z,7.99
2023-04-07T09:07:13.712Z,8.01
2023-04-07T09:12:14.917Z,8.06
2023-04-07T09:17:16.187Z,8.11
2023-04-07T09:22:17.348Z,8.11
2023-04-07T09:27:18.547Z,8.12
2023-04-07T09:32:19.677Z,8.23
2023-04-07T09:37:20.823Z,8.26
2023-04-07T09:42:22.379Z,8.28
2023-04-07T09:47:23.620Z,8.29
2023-04-07T09:52:24.869Z,8.39
2023-04-07T09:57:26.087Z,8.48
2023-04-07T10:02:27.369Z,8.55
2023-04-07T10:07:28.669Z,8.56
2023-04-07T10:12:31.148Z,8.45
2023-04-07T10:17:32.555Z,8.37
2023-04-07T10:22:33.939Z,8.41
2023-04-07T10:27:35.095Z,8.47
2023-04-07T10:32:36.483Z,8.38
2023-04-07T10:37:37.756Z,8.38
2023-04-07T10:42:38.963Z,8.50
2023-04-07T10:47:40.135Z,8.58
2023-04-07T10:52:41.382Z,8.80
2023-04-07T10:57:42.854Z,8.81
2023-04-07T11:02:44.402Z,8.82
2023-04-07T11:07:46.004Z,8.99
2023-04-07T11:12:47.185Z,9.07
2023-04-07T11:17:48.341Z,9.35
2023-04-07T11:22:49.545Z,9.23
2023-04-07T11:27:50.711Z,9.33
2023-04-07T11:32:51.885Z,9.34
2023-04-07T11:37:53.096Z,9.12
2023-04-07T11:42:54.305Z,9.22
2023-04-07T11:47:55.783Z,9.03
2023-04-07T11:52:57.029Z,8.94
2023-04-07T11:57:58.228Z,8.91
2023-04-07T12:02:59.490Z,8.68
2023-04-07T12:08:00.738Z,8.70
2023-04-07T12:13:02.353Z,8.72
2023-04-07T12:18:03.599Z,8.74
2023-04-07T12:23:04.869Z,8.97
2023-04-07T12:28:06.045Z,9.06
2023-04-07T12:33:07.269Z,9.31
2023-04-07T12:38:08.597Z,9.42
2023-04-07T12:43:09.824Z,9.85
2023-04-07T12:48:11.109Z,9.88
2023-04-07T12:53:12.347Z,9.82
2023-04-07T12:58:13.568Z,9.70
2023-04-07T13:03:14.948Z,9.80
2023-04-07T13:08:16.272Z,9.95
2023-04-07T13:13:17.468Z,9.87
2023-04-07T13:18:18.677Z,9.65
2023-04-07T13:23:19.897Z,9.45
2023-04-07T13:28:21.485Z,9.37
2023-04-07T13:33:22.742Z,9.34
2023-04-07T13:38:23.918Z,9.43
2023-04-07T13:43:25.506Z,9.68
2023-04-07T13:48:26.700Z,9.79
2023-04-07T13:53:27.920Z,9.85
2023-04-07T13:58:30.571Z,9.83
2023-04-07T14:03:33.213Z,9.84
2023-04-07T14:08:34.489Z,10.10
2023-04-07T14:13:36.499Z,10.17
2023-04-07T14:18:37.780Z,10.40
2023-04-07T14:23:39.042Z,10.48
2023-04-07T14:28:40.587Z,10.47
2023-04-07T14:33:41.829Z,10.43
2023-04-07T14:38:43.096Z,10.07
2023-04-07T14:43:44.226Z,10.26
2023-04-07T14:48:46.120Z,10.33
2023-04-07T14:53:47.688Z,10.23
2023-04-07T14:58:48.980Z,10.16
2023-04-07T15:03:51.296Z,10.26
2023-04-07T15:08:52.761Z,10.30
2023-04-07T15:13:54.473Z,10.58
2023-04-07T15:18:56.264Z,10.81
2023-04-07T15:23:57.422Z,10.74
2023-04-07T15:28:58.578Z,10.54
2023-04-07T15:33:59.733Z,10.29
2023-04-07T15:39:02.141Z,10.11
2023-04-07T15:44:03.386Z,10.15
2023-04-07T15:49:04.592Z,10.32
2023-04-07T15:54:05.737Z,10.25
2023-04-07T15:59:06.933Z,10.42
2023-04-07T16:04:08.226Z,10.48
2023-04-07T16:09:09.614Z,10.57
2023-04-07T16:14:10.811Z,10.65
2023-04-07T16:19:12.800Z,10.66
2023-04-07T16:24:14.279Z,10.54
2023-04-07T16:29:15.602Z,10.21
2023-04-07T16:34:16.940Z,9.85
2023-04-07T16:39:18.272Z,9.66
2023-04-07T16:44:22.023Z,9.54
2023-04-07T16:49:23.270Z,9.54
2023-04-07T16:54:24.518Z,9.55
2023-04-07T16:59:25.928Z,9.41
2023-04-07T17:04:27.249Z,9.47
2023-04-07T17:09:28.529Z,9.35
2023-04-07T17:14:29.993Z,9.31
2023-04-07T17:19:31.369Z,9.30
2023-04-07T17:24:32.620Z,9.32
2023-04-07T17:29:33.800Z,9.28
2023-04-07T17:34:35.257Z,9.29
2023-04-07T17:39:36.389Z,9.26
2023-04-07T17:44:37.569Z,9.17
2023-04-07T17:49:39.483Z,9.05
2023-04-07T17:54:41.152Z,8.98
2023-04-07T17:59:42.340Z,8.95
2023-04-07T18:04:43.630Z,8.96
2023-04-07T18:09:44.923Z,8.90
2023-04-07T18:14:46.145Z,8.88
2023-04-07T18:19:47.420Z,8.89
2023-04-07T18:24:48.576Z,8.88
2023-04-07T18:29:49.787Z,8.83
2023-04-07T18:34:51.119Z,8.84
2023-04-07T18:39:53.668Z,8.82
2023-04-07T18:44:54.892Z,8.81
2023-04-07T18:49:58.157Z,8.76
2023-04-07T18:54:59.342Z,8.75
2023-04-07T19:00:00.554Z,8.71
2023-04-07T19:05:01.846Z,8.66
2023-04-07T19:10:03.066Z,8.65
2023-04-07T19:15:04.201Z,8.63
2023-04-07T19:20:05.412Z,8.63
2023-04-07T19:25:06.597Z,8.62
2023-04-07T19:30:07.777Z,8.62
2023-04-07T19:35:09.069Z,8.58
2023-04-07T19:40:10.293Z,8.58
2023-04-07T19:45:11.576Z,8.57
2023-04-07T19:50:14.251Z,8.56
2023-04-07T19:55:15.493Z,8.56
2023-04-07T20:00:16.929Z,8.58
2023-04-07T20:05:18.125Z,8.57
2023-04-07T20:10:19.262Z,8.53
2023-04-07T20:15:21.248Z,8.52
2023-04-07T20:20:23.497Z,8.48
2023-04-07T20:25:24.738Z,8.48
2023-04-07T20:30:26.265Z,8.46
2023-04-07T20:35:27.491Z,8.43
2023-04-07T20:40:28.765Z,8.44
2023-04-07T20:45:29.992Z,8.43
2023-04-07T20:50:31.210Z,8.45
2023-04-07T20:55:32.721Z,8.41
2023-04-07T21:00:33.911Z,8.32
2023-04-07T21:05:35.229Z,8.29
2023-04-07T21:10:36.673Z,8.31
2023-04-07T21:15:37.964Z,8.25
2023-04-07T21:20:39.242Z,8.21
2023-04-07T21:25:40.451Z,8.17
2023-04-07T21:30:44.815Z,8.11
2023-04-07T21:35:47.127Z,8.09
2023-04-07T21:40:49.575Z,8.09
2023-04-07T21:45:50.743Z,8.06
2023-04-07T21:50:52.101Z,8.01
2023-04-07T21:55:53.380Z,7.97
2023-04-07T22:00:54.739Z,7.96
2023-04-07T22:05:56.398Z,7.99
2023-04-07T22:10:58.733Z,7.98
2023-04-07T22:16:02.096Z,8.02
2023-04-07T22:21:03.289Z,8.04
2023-04-07T22:26:04.510Z,8.06
2023-04-07T22:31:05.743Z,8.09
2023-04-07T22:36:07.024Z,8.07
2023-04-07T22:41:08.221Z,8.01
2023-04-07T22:46:09.427Z,8.02
2023-04-07T22:51:11.027Z,8.06
2023-04-07T22:56:12.200Z,8.02
2023-04-07T23:01:13.407Z,8.02
2023-04-07T23:06:14.692Z,8.02
2023-04-07T23:11:16.327Z,8.00
2023-04-07T23:16:17.604Z,8.01
2023-04-07T23:21:18.760Z,8.03
2023-04-07T23:26:20.072Z,8.05
2023-04-07T23:31:21.311Z,8.02
2023-04-07T23:36:22.609Z,8.04
2023-04-07T23:41:23.836Z,8.03
2023-04-07T23:46:25.194Z,8.08
2023-04-07T23:51:27.635Z,8.13
2023-04-07T23:56:28.987Z,8.05
